Time;durP1;ratioP1;P1;durP2;ratioP2;P2;SDS_P1;SDS_P2;PMS_P1;PMS_P2;Temp;Humidity;BMP_temperature;BMP_pressure;BME280_temperature;BME280_humidity;BME280_pressure;Samples;Min_cycle;Max_cycle;Signal;HPM_P1;HPM_P2
2024/03/02 00:00:36;;;;;;;2.08;1.10;;;;;;;;;;4982626;28;20084;-81
2024/03/02 00:03:02;;;;;;;3.80;1.25;;;;;;;;;;4988517;28;20069;-79
2024/03/02 00:05:27;;;;;;;3.83;1.45;;;;;;;;;;4983171;28;20046;-79
2024/03/02 00:07:55;;;;;;;2.50;1.10;;;;;;;;;;4964287;28;20038;-81
2024/03/02 00:10:28;;;;;;;2.95;1.13;;;;;;;;;;4961373;28;20065;-76
2024/03/02 00:12:55;;;;;;;;;;;;;;;;;;4988225;28;20056;-76
2024/03/02 00:15:23;;;;;;;3.97;1.20;;;;;;;;;;4968435;28;19918;-77
2024/03/02 00:17:53;;;;;;;2.38;1.20;;;;;;;;;;4985304;28;20037;-76
2024/03/02 00:20:22;;;;;;;3.35;1.20;;;;;;;;;;4985268;28;20417;-78
2024/03/02 00:22:48;;;;;;;2.30;1.08;;;;;;;;;;4986875;28;20030;-76
2024/03/02 00:25:14;;;;;;;2.22;1.15;;;;;;;;;;4970683;28;20088;-76
2024/03/02 00:27:39;;;;;;;2.42;1.30;;;;;;;;;;4987495;28;20403;-78
2024/03/02 00:30:44;;;;;;;2.00;0.85;;;;;;;;;;4988074;28;20022;-76
2024/03/02 00:33:10;;;;;;;1.05;0.50;;;;;;;;;;4971138;28;20018;-77
2024/03/02 00:35:35;;;;;;;0.40;0.30;;;;;;;;;;4985143;28;20033;-76
2024/03/02 00:38:06;;;;;;;0.65;0.40;;;;;;;;;;4981876;28;20392;-76
2024/03/02 00:40:32;;;;;;;0.60;0.30;;;;;;;;;;4981463;28;20041;-78
2024/03/02 00:42:58;;;;;;;0.80;0.40;;;;;;;;;;4973968;28;20026;-76
2024/03/02 00:45:24;;;;;;;0.40;0.40;;;;;;;;;;4970156;28;20022;-77
2024/03/02 00:47:50;;;;;;;0.30;0.30;;;;;;;;;;4974851;28;20034;-76
2024/03/02 00:50:16;;;;;;;0.60;0.40;;;;;;;;;;4989506;28;20519;-77
2024/03/02 00:52:42;;;;;;;1.08;0.40;;;;;;;;;;4987845;28;20044;-77
2024/03/02 00:55:08;;;;;;;0.95;0.40;;;;;;;;;;4986933;28;20548;-78
2024/03/02 00:57:34;;;;;;;0.70;0.40;;;;;;;;;;4990650;28;20571;-77
2024/03/02 01:00:00;;;;;;;0.60;0.30;;;;;;;;;;4989374;28;20049;-77
2024/03/02 01:02:25;;;;;;;1.20;0.30;;;;;;;;;;4991350;28;20493;-75
2024/03/02 01:04:50;;;;;;;0.57;0.40;;;;;;;;;;4990042;28;20497;-78
2024/03/02 01:07:16;;;;;;;0.50;0.30;;;;;;;;;;4973462;28;20399;-75
2024/03/02 01:09:41;;;;;;;0.85;0.30;;;;;;;;;;4987281;28;20030;-78
2024/03/02 01:12:07;;;;;;;0.95;0.43;;;;;;;;;;4988474;28;20487;-76
2024/03/02 01:14:32;;;;;;;0.90;0.40;;;;;;;;;;4987649;28;20523;-76
2024/03/02 01:16:58;;;;;;;1.00;0.40;;;;;;;;;;4988618;28;20030;-76
2024/03/02 01:19:23;;;;;;;0.50;0.47;;;;;;;;;;4968766;28;20411;-79
2024/03/02 01:21:50;;;;;;;1.65;0.50;;;;;;;;;;4979152;28;20018;-79
2024/03/02 01:24:16;;;;;;;1.63;0.40;;;;;;;;;;4970899;28;20056;-80
2024/03/02 01:26:42;;;;;;;0.70;0.50;;;;;;;;;;4985710;28;20026;-79
2024/03/02 01:29:07;;;;;;;0.47;0.40;;;;;;;;;;4972997;28;20038;-79
2024/03/02 01:31:32;;;;;;;0.90;0.40;;;;;;;;;;4985156;28;20030;-79
2024/03/02 01:33:58;;;;;;;0.68;0.45;;;;;;;;;;4969846;28;20018;-79
2024/03/02 01:36:23;;;;;;;0.47;0.35;;;;;;;;;;4977693;28;20090;-79
2024/03/02 01:38:49;;;;;;;1.20;0.40;;;;;;;;;;4985648;28;20388;-79
2024/03/02 01:41:14;;;;;;;0.93;0.40;;;;;;;;;;4968022;28;20444;-79
2024/03/02 01:43:40;;;;;;;0.90;0.50;;;;;;;;;;4983722;28;20034;-79
2024/03/02 01:46:05;;;;;;;1.27;0.50;;;;;;;;;;4987437;28;20603;-79
2024/03/02 01:48:31;;;;;;;0.80;0.50;;;;;;;;;;4980371;28;20030;-79
2024/03/02 01:50:57;;;;;;;0.73;0.47;;;;;;;;;;4986062;28;20034;-79
2024/03/02 01:53:22;;;;;;;1.23;0.40;;;;;;;;;;4985703;28;20027;-79
2024/03/02 01:55:47;;;;;;;1.13;0.50;;;;;;;;;;4991866;28;20026;-79
2024/03/02 01:58:13;;;;;;;1.65;0.50;;;;;;;;;;4988110;28;20496;-79
2024/03/02 02:00:38;;;;;;;0.50;0.30;;;;;;;;;;4987930;28;20056;-77
2024/03/02 06:32:35;;;;;;;1.15;0.40;;;;;;;;;;4962754;28;20054;-89
2024/03/02 06:36:11;;;;;;;0.88;0.50;;;;;;;;;;4967137;28;20113;-89
2024/03/02 06:38:15;;;;;;;2.05;0.55;;;;;;;;;;4954444;28;20074;-88
2024/03/02 06:40:41;;;;;;;1.02;0.40;;;;;;;;;;4946874;28;20061;-88
2024/03/02 06:43:23;;;;;;;1.77;0.50;;;;;;;;;;4948070;28;20020;-89
2024/03/02 06:45:58;;;;;;;0.73;0.50;;;;;;;;;;4947618;28;20038;-91
2024/03/02 06:48:24;;;;;;;3.00;0.50;;;;;;;;;;4967693;28;21937;-91
2024/03/02 06:50:50;;;;;;;0.52;0.40;;;;;;;;;;4951756;28;20031;-91
2024/03/02 06:53:40;;;;;;;1.52;0.40;;;;;;;;;;4949471;28;20361;-90
2024/03/02 06:59:11;;;;;;;3.75;0.60;;;;;;;;;;4964781;28;20049;-90
2024/03/02 07:01:49;;;;;;;1.48;0.70;;;;;;;;;;4965093;28;20031;-91
2024/03/02 07:04:39;;;;;;;1.65;0.60;;;;;;;;;;4970994;28;20030;-91
2024/03/02 07:07:13;;;;;;;2.80;0.57;;;;;;;;;;4950697;28;20125;-90
2024/03/02 07:10:41;;;;;;;2.25;1.15;;;;;;;;;;4967279;28;20118;-91
2024/03/02 07:13:23;;;;;;;1.45;0.40;;;;;;;;;;4929584;29;20484;-90
2024/03/02 07:16:43;;;;;;;1.30;0.40;;;;;;;;;;4966903;28;20061;-90
2024/03/02 07:19:08;;;;;;;2.95;0.45;;;;;;;;;;4956692;28;20030;-90
2024/03/02 07:22:09;;;;;;;2.17;0.90;;;;;;;;;;4957520;28;20537;-91
2024/03/02 07:25:02;;;;;;;1.75;0.57;;;;;;;;;;4953758;28;20121;-90
2024/03/02 07:27:28;;;;;;;2.05;0.57;;;;;;;;;;4972285;28;20038;-91
2024/03/02 07:29:54;;;;;;;1.23;0.60;;;;;;;;;;4957309;28;20039;-90
2024/03/02 07:32:19;;;;;;;2.70;0.60;;;;;;;;;;4957516;28;20523;-89
2024/03/02 07:35:37;;;;;;;3.03;0.70;;;;;;;;;;4951670;28;20496;-90
2024/03/02 07:38:28;;;;;;;1.60;0.55;;;;;;;;;;4969443;28;20039;-90
2024/03/02 07:40:55;;;;;;;1.98;0.68;;;;;;;;;;4970086;28;20027;-90
2024/03/02 07:43:39;;;;;;;1.88;0.55;;;;;;;;;;4952182;28;20482;-88
2024/03/02 07:46:08;;;;;;;1.13;0.40;;;;;;;;;;4972291;28;20027;-88
2024/03/02 07:48:33;;;;;;;1.88;0.60;;;;;;;;;;4963903;28;20022;-90
2024/03/02 07:51:16;;;;;;;1.48;0.50;;;;;;;;;;4957455;28;20053;-90
2024/03/02 07:53:57;;;;;;;1.77;0.50;;;;;;;;;;4971762;28;20556;-88
2024/03/02 07:56:26;;;;;;;1.35;0.50;;;;;;;;;;4953242;28;20553;-89
2024/03/02 07:58:57;;;;;;;1.75;0.60;;;;;;;;;;4957344;28;20035;-89
2024/03/02 08:01:25;;;;;;;1.20;0.40;;;;;;;;;;4960172;28;20042;-88
2024/03/02 17:20:32;;;;;;;2.63;1.45;;;;;;;;;;1159263;23;20330;-82
2024/03/02 17:22:58;;;;;;;2.22;1.30;;;;;;;;;;4961431;28;20137;-83
2024/03/02 17:25:23;;;;;;;2.85;1.30;;;;;;;;;;4964074;28;20122;-83
2024/03/02 17:27:48;;;;;;;2.88;1.40;;;;;;;;;;4963528;28;20109;-84
2024/03/02 17:30:14;;;;;;;2.20;1.25;;;;;;;;;;4967754;28;20031;-83
2024/03/02 17:32:40;;;;;;;4.35;1.38;;;;;;;;;;4968917;28;20038;-84
2024/03/02 17:35:06;;;;;;;2.17;1.20;;;;;;;;;;4949567;28;20034;-84
2024/03/02 17:37:34;;;;;;;2.53;1.40;;;;;;;;;;4959068;28;20038;-83
2024/03/02 17:39:59;;;;;;;4.82;1.20;;;;;;;;;;4969466;28;20093;-84
2024/03/02 17:42:25;;;;;;;3.40;1.30;;;;;;;;;;4946319;28;20389;-84
2024/03/02 17:44:51;;;;;;;5.50;1.30;;;;;;;;;;4967683;28;20029;-84
2024/03/02 17:47:16;;;;;;;3.03;1.40;;;;;;;;;;4947388;28;20034;-84
2024/03/02 17:49:42;;;;;;;4.05;1.40;;;;;;;;;;4945914;28;20086;-85
2024/03/02 17:52:07;;;;;;;2.90;1.50;;;;;;;;;;4940977;28;20070;-84
2024/03/02 17:54:35;;;;;;;3.88;1.42;;;;;;;;;;4954478;28;20030;-83
2024/03/02 17:57:00;;;;;;;4.22;1.85;;;;;;;;;;4929519;28;20045;-83
2024/03/02 17:59:26;;;;;;;3.50;1.70;;;;;;;;;;4934139;28;20031;-84
2024/03/02 18:01:52;;;;;;;4.93;1.95;;;;;;;;;;4947573;28;20038;-84
2024/03/02 18:04:17;;;;;;;3.28;1.80;;;;;;;;;;4940724;28;20027;-84
2024/03/02 18:06:46;;;;;;;2.97;1.85;;;;;;;;;;4950844;28;20110;-85
2024/03/02 18:09:11;;;;;;;3.38;1.77;;;;;;;;;;4950211;28;20544;-84
2024/03/02 18:11:37;;;;;;;4.18;1.85;;;;;;;;;;4945102;28;20039;-84
2024/03/02 18:14:02;;;;;;;2.85;1.52;;;;;;;;;;4927158;29;20028;-84
2024/03/02 18:16:27;;;;;;;7.07;1.80;;;;;;;;;;4949212;28;20043;-83
2024/03/02 18:18:53;;;;;;;4.25;1.52;;;;;;;;;;4947297;28;20186;-84
2024/03/02 18:21:18;;;;;;;5.28;2.10;;;;;;;;;;4931691;28;20340;-85
2024/03/02 18:23:44;;;;;;;5.30;2.08;;;;;;;;;;4935751;28;20096;-84
2024/03/02 18:26:10;;;;;;;3.28;1.80;;;;;;;;;;4947408;28;20042;-84
2024/03/02 18:28:35;;;;;;;4.28;1.92;;;;;;;;;;4927335;29;20026;-84
2024/03/02 18:31:01;;;;;;;3.42;1.83;;;;;;;;;;4938918;28;20043;-84
2024/03/02 18:33:26;;;;;;;3.72;1.80;;;;;;;;;;4947517;28;20042;-83
2024/03/02 18:35:52;;;;;;;5.03;1.98;;;;;;;;;;4933473;28;20028;-85
2024/03/02 18:38:17;;;;;;;3.40;1.77;;;;;;;;;;4943859;28;20069;-86
2024/03/02 18:40:47;;;;;;;4.45;2.15;;;;;;;;;;4929643;29;20400;-85
2024/03/02 18:43:13;;;;;;;4.18;2.40;;;;;;;;;;4946603;28;20027;-84
2024/03/02 18:45:38;;;;;;;3.15;1.88;;;;;;;;;;4942959;28;20035;-85
2024/03/02 18:48:07;;;;;;;4.28;2.45;;;;;;;;;;4936996;28;20406;-85
2024/03/02 18:50:33;;;;;;;4.35;1.90;;;;;;;;;;4959086;28;20027;-84
2024/03/02 18:52:58;;;;;;;5.70;2.30;;;;;;;;;;4943608;29;20023;-86
2024/03/02 18:55:27;;;;;;;3.25;2.10;;;;;;;;;;4955358;28;20028;-84
2024/03/02 18:57:53;;;;;;;4.05;2.47;;;;;;;;;;4943628;28;20186;-85
2024/03/02 19:00:19;;;;;;;3.50;2.30;;;;;;;;;;4935689;28;20109;-85
2024/03/02 19:02:45;;;;;;;4.28;2.35;;;;;;;;;;4957757;28;20050;-84
2024/03/02 19:05:10;;;;;;;3.92;2.20;;;;;;;;;;4940198;28;20015;-84
2024/03/02 19:07:36;;;;;;;4.35;2.53;;;;;;;;;;4963610;28;20488;-83
2024/03/02 19:10:04;;;;;;;4.55;2.20;;;;;;;;;;4961437;28;20019;-85
2024/03/02 19:12:30;;;;;;;3.72;2.10;;;;;;;;;;4943262;28;20027;-84
2024/03/02 19:14:55;;;;;;;4.82;2.35;;;;;;;;;;4956396;28;20034;-85
2024/03/02 19:17:21;;;;;;;4.45;2.40;;;;;;;;;;4957117;28;20023;-84
2024/03/02 19:19:46;;;;;;;4.97;2.40;;;;;;;;;;4952925;28;20035;-83
2024/03/02 19:22:12;;;;;;;4.28;2.15;;;;;;;;;;4952572;28;20027;-84
2024/03/02 19:24:38;;;;;;;3.30;1.95;;;;;;;;;;4937985;29;20039;-84
2024/03/02 19:27:05;;;;;;;4.90;2.10;;;;;;;;;;4950386;28;20098;-84
2024/03/02 19:29:31;;;;;;;3.75;2.20;;;;;;;;;;4953494;28;20034;-84
2024/03/02 19:31:57;;;;;;;3.15;1.90;;;;;;;;;;4954423;28;20172;-85
2024/03/02 19:34:23;;;;;;;3.83;1.85;;;;;;;;;;4954924;28;20019;-83
2024/03/02 19:36:49;;;;;;;7.65;2.30;;;;;;;;;;4957262;28;20063;-84
2024/03/02 19:39:17;;;;;;;4.70;2.05;;;;;;;;;;4957360;28;20082;-85
2024/03/02 19:41:45;;;;;;;3.22;1.80;;;;;;;;;;4957583;28;20082;-85
2024/03/02 19:44:10;;;;;;;3.03;1.83;;;;;;;;;;4935985;29;20055;-85
2024/03/02 19:46:36;;;;;;;4.38;2.00;;;;;;;;;;4951618;28;20058;-85
2024/03/02 19:49:01;;;;;;;4.22;1.92;;;;;;;;;;4954221;28;20035;-84
2024/03/02 19:51:27;;;;;;;3.75;2.03;;;;;;;;;;4938457;29;20429;-85
2024/03/02 19:53:52;;;;;;;4.13;2.00;;;;;;;;;;4951662;28;21333;-86
2024/03/02 19:56:18;;;;;;;4.20;2.38;;;;;;;;;;4949805;29;20637;-84
2024/03/02 19:58:44;;;;;;;3.97;2.15;;;;;;;;;;4953281;28;20026;-84
2024/03/02 20:01:09;;;;;;;4.15;2.17;;;;;;;;;;4939641;28;20027;-84
2024/03/02 20:03:35;;;;;;;3.75;1.90;;;;;;;;;;4950568;28;20019;-84
2024/03/02 20:06:04;;;;;;;5.97;2.20;;;;;;;;;;4935855;29;20042;-85
2024/03/02 20:08:30;;;;;;;5.65;2.70;;;;;;;;;;4952186;28;20482;-84
2024/03/02 20:10:55;;;;;;;4.10;2.35;;;;;;;;;;4951453;28;20054;-83
2024/03/02 20:13:22;;;;;;;3.97;2.50;;;;;;;;;;4954787;28;20034;-83
2024/03/02 20:15:47;;;;;;;5.63;2.55;;;;;;;;;;4952739;28;20481;-83
2024/03/02 20:18:13;;;;;;;7.72;2.90;;;;;;;;;;4953156;29;20082;-84
2024/03/02 20:20:39;;;;;;;4.72;2.60;;;;;;;;;;4951245;28;20024;-84
2024/03/02 20:23:05;;;;;;;3.97;2.50;;;;;;;;;;4952426;28;20062;-85
2024/03/02 20:25:31;;;;;;;5.95;2.55;;;;;;;;;;4937284;28;20031;-84
2024/03/02 20:27:59;;;;;;;4.82;2.72;;;;;;;;;;4934032;28;20023;-84
2024/03/02 20:30:24;;;;;;;5.22;2.95;;;;;;;;;;4953351;29;20109;-83
2024/03/02 20:32:50;;;;;;;4.20;2.58;;;;;;;;;;4938014;29;20170;-84
2024/03/02 20:35:15;;;;;;;4.63;2.30;;;;;;;;;;4954469;28;20094;-84
2024/03/02 20:37:43;;;;;;;4.35;2.53;;;;;;;;;;4950090;28;21359;-84
2024/03/02 20:40:08;;;;;;;4.07;2.50;;;;;;;;;;4951820;28;20106;-82
2024/03/02 20:42:34;;;;;;;5.55;2.60;;;;;;;;;;4951451;28;20493;-83
2024/03/02 20:44:59;;;;;;;5.00;2.50;;;;;;;;;;4952531;29;20058;-83
2024/03/02 20:47:25;;;;;;;4.60;2.40;;;;;;;;;;4951902;28;20385;-85
2024/03/02 20:49:50;;;;;;;4.20;2.70;;;;;;;;;;4951756;28;20050;-84
2024/03/02 20:52:16;;;;;;;4.28;2.55;;;;;;;;;;4952626;28;20388;-84
2024/03/02 20:54:41;;;;;;;6.20;2.78;;;;;;;;;;4950555;28;20027;-84
2024/03/02 20:57:07;;;;;;;4.65;2.50;;;;;;;;;;4932987;29;20126;-84
2024/03/02 20:59:33;;;;;;;4.82;2.60;;;;;;;;;;4933481;29;20058;-84
2024/03/02 21:01:58;;;;;;;8.65;2.72;;;;;;;;;;4951881;28;20031;-84
2024/03/02 21:04:24;;;;;;;4.38;2.58;;;;;;;;;;4950604;28;20168;-85
2024/03/02 21:06:49;;;;;;;4.05;2.47;;;;;;;;;;4951569;29;20540;-85
2024/03/02 21:09:15;;;;;;;3.97;2.25;;;;;;;;;;4951099;28;20019;-85
2024/03/02 21:11:44;;;;;;;4.43;2.50;;;;;;;;;;4933020;29;20456;-82
2024/03/02 21:14:12;;;;;;;3.83;2.28;;;;;;;;;;4949875;28;20082;-84
2024/03/02 21:16:40;;;;;;;4.82;2.60;;;;;;;;;;4948111;28;20031;-84
2024/03/02 21:19:06;;;;;;;7.22;3.28;;;;;;;;;;4934072;29;20081;-84
2024/03/02 21:21:32;;;;;;;7.53;3.00;;;;;;;;;;4951251;28;20547;-83
2024/03/02 21:23:57;;;;;;;9.68;3.22;;;;;;;;;;4934382;29;20039;-85
2024/03/02 21:26:23;;;;;;;7.30;3.10;;;;;;;;;;4931196;28;20037;-83
2024/03/02 21:28:48;;;;;;;7.07;2.92;;;;;;;;;;4938564;28;20043;-85
2024/03/02 21:31:15;;;;;;;3.88;2.38;;;;;;;;;;4930409;29;20067;-84
2024/03/02 21:33:41;;;;;;;4.90;2.40;;;;;;;;;;4947108;28;20069;-84
2024/03/02 21:36:06;;;;;;;4.88;2.38;;;;;;;;;;4930773;29;20575;-85
2024/03/02 21:38:31;;;;;;;5.65;2.30;;;;;;;;;;4929519;29;20517;-84
2024/03/02 21:40:57;;;;;;;4.63;2.38;;;;;;;;;;4944253;28;20031;-84
2024/03/02 21:43:22;;;;;;;4.60;2.30;;;;;;;;;;4944414;28;20058;-83
2024/03/02 21:45:48;;;;;;;5.15;2.10;;;;;;;;;;4939112;28;20089;-83
2024/03/02 21:48:13;;;;;;;3.70;2.05;;;;;;;;;;4943356;28;20930;-83
2024/03/02 21:50:38;;;;;;;3.85;2.50;;;;;;;;;;4946823;28;20420;-84
2024/03/02 21:53:04;;;;;;;3.85;2.10;;;;;;;;;;4930215;28;20520;-84
2024/03/02 21:55:29;;;;;;;3.60;2.10;;;;;;;;;;4920803;28;20033;-84
2024/03/02 21:57:55;;;;;;;3.03;1.80;;;;;;;;;;4924825;28;20425;-84
2024/03/02 22:00:21;;;;;;;3.55;2.20;;;;;;;;;;4940247;28;20548;-84
2024/03/02 22:02:46;;;;;;;4.13;2.13;;;;;;;;;;4941184;28;20027;-84
2024/03/02 22:05:12;;;;;;;5.20;1.85;;;;;;;;;;4936479;28;20254;-83
2024/03/02 22:07:37;;;;;;;4.15;2.45;;;;;;;;;;4937964;28;21085;-84
2024/03/02 22:10:04;;;;;;;3.42;2.20;;;;;;;;;;4922645;28;20118;-83
2024/03/02 22:12:30;;;;;;;5.15;2.40;;;;;;;;;;4942998;29;20042;-84
2024/03/02 22:14:55;;;;;;;3.88;1.90;;;;;;;;;;4928671;29;20019;-84
2024/03/02 22:17:22;;;;;;;4.70;2.20;;;;;;;;;;4927864;29;20035;-83
2024/03/02 22:19:47;;;;;;;3.45;2.10;;;;;;;;;;4920773;28;20050;-87
2024/03/02 22:22:13;;;;;;;4.30;2.38;;;;;;;;;;4943728;28;20024;-87
2024/03/02 22:24:40;;;;;;;4.22;2.28;;;;;;;;;;4943789;28;20031;-88
2024/03/02 22:27:06;;;;;;;3.70;2.03;;;;;;;;;;4935474;28;20152;-86
2024/03/02 22:29:31;;;;;;;4.10;2.47;;;;;;;;;;4940559;28;20767;-86
2024/03/02 22:31:57;;;;;;;3.90;2.20;;;;;;;;;;4938467;28;20034;-87
2024/03/02 22:34:22;;;;;;;4.88;2.42;;;;;;;;;;4945014;28;20130;-88
2024/03/02 22:36:47;;;;;;;4.18;2.47;;;;;;;;;;4919105;29;20037;-87
2024/03/02 22:39:13;;;;;;;4.28;2.28;;;;;;;;;;4939614;28;20413;-87
2024/03/02 22:41:38;;;;;;;4.20;2.58;;;;;;;;;;4940923;28;20039;-87
2024/03/02 22:44:04;;;;;;;3.65;2.45;;;;;;;;;;4942197;28;20246;-88
2024/03/02 22:46:29;;;;;;;4.50;2.40;;;;;;;;;;4928380;28;20039;-88
2024/03/02 22:48:54;;;;;;;5.30;2.28;;;;;;;;;;4944831;28;20038;-88
2024/03/02 22:51:24;;;;;;;5.32;2.50;;;;;;;;;;4950189;28;20414;-87
2024/03/02 22:53:50;;;;;;;4.53;2.30;;;;;;;;;;4942170;28;20735;-87
2024/03/02 22:56:16;;;;;;;4.40;2.70;;;;;;;;;;4948271;28;20074;-87
2024/03/02 22:58:42;;;;;;;4.45;2.60;;;;;;;;;;4948523;28;20039;-88
2024/03/02 23:01:08;;;;;;;3.47;2.33;;;;;;;;;;4950387;28;20488;-87
2024/03/02 23:03:36;;;;;;;6.07;2.88;;;;;;;;;;4924784;28;20023;-88
2024/03/02 23:06:01;;;;;;;4.95;2.33;;;;;;;;;;4944906;28;20029;-87
2024/03/02 23:08:27;;;;;;;4.18;2.33;;;;;;;;;;4929034;29;20424;-87
2024/03/02 23:10:53;;;;;;;5.03;2.70;;;;;;;;;;4943973;28;20031;-87
2024/03/02 23:13:18;;;;;;;4.47;2.50;;;;;;;;;;4947252;28;20027;-88
2024/03/02 23:15:43;;;;;;;5.15;2.75;;;;;;;;;;4939576;28;20450;-88
2024/03/02 23:18:09;;;;;;;4.63;2.70;;;;;;;;;;4954198;28;20031;-87
2024/03/02 23:20:34;;;;;;;4.47;2.60;;;;;;;;;;4936275;28;20131;-88
2024/03/02 23:23:04;;;;;;;4.30;2.30;;;;;;;;;;4936313;29;20027;-88
2024/03/02 23:25:30;;;;;;;7.05;2.80;;;;;;;;;;4938882;28;20035;-88
2024/03/02 23:27:55;;;;;;;5.40;2.92;;;;;;;;;;4955266;28;20188;-87
2024/03/02 23:30:22;;;;;;;6.10;2.90;;;;;;;;;;4956802;28;20126;-87
2024/03/02 23:32:47;;;;;;;5.68;2.90;;;;;;;;;;4955513;28;20027;-87
2024/03/02 23:35:12;;;;;;;5.43;3.10;;;;;;;;;;4939480;29;20035;-87
2024/03/02 23:37:38;;;;;;;5.45;2.90;;;;;;;;;;4952526;28;20031;-88
2024/03/02 23:42:29;;;;;;;6.63;3.50;;;;;;;;;;4955194;28;20035;-87
2024/03/02 23:44:55;;;;;;;5.28;3.20;;;;;;;;;;4953882;29;20478;-86
2024/03/02 23:47:21;;;;;;;5.57;3.30;;;;;;;;;;4952948;28;20421;-87
2024/03/02 23:49:47;;;;;;;6.03;3.50;;;;;;;;;;4935588;28;20073;-87
2024/03/02 23:52:13;;;;;;;5.93;3.85;;;;;;;;;;4952918;28;20023;-87
2024/03/02 23:54:39;;;;;;;5.15;3.67;;;;;;;;;;4953409;28;20035;-87
2024/03/02 23:57:04;;;;;;;5.53;3.67;;;;;;;;;;4938615;29;20490;-87
2024/03/02 23:59:30;;;;;;;6.35;3.42;;;;;;;;;;4934981;28;20384;-87
